Time;durP1;ratioP1;P1;durP2;ratioP2;P2;SDS_P1;SDS_P2;PMS_P1;PMS_P2;Temp;Humidity;BMP_temperature;BMP_pressure;BME280_temperature;BME280_humidity;BME280_pressure;Samples;Min_cycle;Max_cycle;Signal;HPM_P1;HPM_P2
2022/10/05 00:01:23;;;;;;;11.18;7.57;;;15.30;99.90;;;;;;5074614;28;20502;-75
2022/10/05 00:03:50;;;;;;;10.90;7.85;;;15.30;99.90;;;;;;5072646;28;20086;-74
2022/10/05 00:06:15;;;;;;;10.27;6.80;;;15.50;99.90;;;;;;5074309;28;20047;-75
2022/10/05 00:08:42;;;;;;;9.50;6.97;;;15.40;99.90;;;;;;5072829;28;20044;-74
2022/10/05 00:11:11;;;;;;;12.88;7.60;;;15.30;99.90;;;;;;5055885;28;20040;-76
2022/10/05 00:13:38;;;;;;;10.80;6.90;;;15.40;99.90;;;;;;5073725;28;20119;-74
2022/10/05 00:16:10;;;;;;;12.40;6.63;;;15.40;99.90;;;;;;5073973;28;20040;-75
2022/10/05 00:18:37;;;;;;;10.10;6.43;;;15.40;99.90;;;;;;5073310;28;20044;-75
2022/10/05 00:21:15;;;;;;;9.45;6.97;;;15.40;99.90;;;;;;5073753;28;20114;-74
2022/10/05 00:23:41;;;;;;;10.45;7.03;;;15.50;99.90;;;;;;5072474;28;20127;-75
2022/10/05 00:26:19;;;;;;;12.05;7.40;;;15.30;99.90;;;;;;5072460;28;20068;-75
2022/10/05 00:28:45;;;;;;;11.43;6.93;;;15.40;99.90;;;;;;5073877;28;20040;-74
2022/10/05 00:31:21;;;;;;;12.02;6.63;;;15.40;99.90;;;;;;5072407;28;20043;-75
2022/10/05 00:33:48;;;;;;;10.55;7.07;;;15.30;99.90;;;;;;5072397;28;20044;-74
2022/10/05 00:36:14;;;;;;;15.20;6.63;;;15.40;99.90;;;;;;5055904;28;20040;-74
2022/10/05 00:38:40;;;;;;;11.52;6.63;;;15.30;99.90;;;;;;5072307;28;20083;-74
2022/10/05 00:41:15;;;;;;;12.13;7.32;;;15.30;99.90;;;;;;5072145;28;20046;-75
2022/10/05 00:43:58;;;;;;;16.60;7.43;;;15.50;99.90;;;;;;5072092;28;20044;-75
2022/10/05 00:46:26;;;;;;;;;;;15.40;99.90;;;;;;5073876;28;20036;-74
2022/10/05 00:48:58;;;;;;;9.73;6.40;;;15.40;99.90;;;;;;5073396;28;19921;-76
2022/10/05 00:52:07;;;;;;;11.75;6.45;;;15.40;99.90;;;;;;5071868;28;20048;-74
2022/10/05 00:54:47;;;;;;;7.75;5.15;;;15.20;99.90;;;;;;5061900;28;20045;-75
2022/10/05 00:58:03;;;;;;;9.93;6.22;;;15.30;99.90;;;;;;5071900;28;20032;-75
2022/10/05 01:00:33;;;;;;;10.65;5.90;;;15.40;99.90;;;;;;5055404;28;20453;-74
2022/10/05 01:03:30;;;;;;;9.40;6.65;;;15.20;99.90;;;;;;5071385;28;20041;-75
2022/10/05 01:06:07;;;;;;;12.15;6.45;;;15.30;99.90;;;;;;5071982;28;20045;-74
2022/10/05 01:08:53;;;;;;;10.00;5.85;;;15.30;99.90;;;;;;5071661;28;20045;-74
2022/10/05 01:11:39;;;;;;;7.05;5.60;;;15.30;99.90;;;;;;5071381;28;20074;-74
2022/10/05 01:14:43;;;;;;;10.07;5.82;;;15.30;99.90;;;;;;5072457;28;20118;-74
2022/10/05 01:17:17;;;;;;;;;;;15.30;99.90;;;;;;5073354;28;20035;-75
2022/10/05 01:20:26;;;;;;;12.25;5.90;;;15.30;99.90;;;;;;5071521;28;20022;-74
2022/10/05 01:23:33;;;;;;;7.38;5.30;;;15.10;99.90;;;;;;5071047;28;20044;-75
2022/10/05 01:26:25;;;;;;;11.30;5.78;;;15.20;99.90;;;;;;5071539;28;20040;-74
2022/10/05 01:29:09;;;;;;;10.48;5.50;;;15.10;99.90;;;;;;5071213;28;20037;-74
2022/10/05 01:31:49;;;;;;;8.50;5.50;;;15.20;99.90;;;;;;5071118;28;20048;-74
2022/10/05 01:34:46;;;;;;;8.90;5.40;;;15.00;99.90;;;;;;5071276;28;20044;-75
2022/10/05 01:37:27;;;;;;;9.20;5.28;;;15.10;99.90;;;;;;5071081;28;20115;-74
2022/10/05 01:40:19;;;;;;;7.00;5.22;;;15.20;99.90;;;;;;5072397;28;20036;-74
2022/10/05 01:42:44;;;;;;;9.45;5.68;;;15.10;99.90;;;;;;5070872;28;20098;-74
2022/10/05 01:45:28;;;;;;;10.70;5.40;;;15.00;99.90;;;;;;5070923;28;20088;-74
2022/10/05 01:48:11;;;;;;;8.05;5.00;;;15.10;99.90;;;;;;5071108;28;20067;-75
2022/10/05 01:51:02;;;;;;;;;;;15.20;99.90;;;;;;5071554;28;20044;-74
2022/10/05 01:53:41;;;;;;;7.60;4.38;;;15.00;99.90;;;;;;5070525;28;19916;-76
2022/10/05 01:56:38;;;;;;;10.02;5.82;;;15.00;99.90;;;;;;5070663;28;20047;-75
2022/10/05 01:59:34;;;;;;;8.90;6.03;;;15.20;99.90;;;;;;5071078;28;20111;-74
2022/10/05 02:02:15;;;;;;;9.48;5.38;;;15.00;99.90;;;;;;5071923;28;20043;-75
2022/10/05 02:04:47;;;;;;;7.35;5.10;;;15.10;99.90;;;;;;5071967;28;20094;-75
2022/10/05 02:07:28;;;;;;;9.35;5.50;;;15.10;99.90;;;;;;5070776;28;20058;-75
2022/10/05 02:09:59;;;;;;;7.65;5.55;;;15.20;99.90;;;;;;5071856;28;20044;-75
2022/10/05 02:12:31;;;;;;;9.40;5.43;;;15.30;99.90;;;;;;5071409;28;20498;-74
2022/10/05 02:15:06;;;;;;;6.65;5.43;;;15.10;99.90;;;;;;5053873;28;20043;-75
2022/10/05 02:17:37;;;;;;;8.30;5.50;;;15.00;99.90;;;;;;5070636;28;20051;-74
2022/10/05 02:20:09;;;;;;;8.80;5.72;;;15.20;99.90;;;;;;5070483;28;20101;-75
2022/10/05 02:22:38;;;;;;;10.82;5.68;;;15.10;99.90;;;;;;5070446;28;20048;-76
2022/10/05 02:25:12;;;;;;;8.30;5.28;;;15.00;99.90;;;;;;5070534;28;20512;-74
2022/10/05 02:27:51;;;;;;;8.52;6.00;;;15.00;99.90;;;;;;5071742;28;20660;-75
2022/10/05 02:30:18;;;;;;;9.13;5.80;;;15.20;99.90;;;;;;5070210;28;20078;-75
2022/10/05 02:32:53;;;;;;;7.80;5.47;;;15.20;99.90;;;;;;5070113;28;20119;-74
2022/10/05 02:35:20;;;;;;;9.60;5.68;;;15.00;99.90;;;;;;5070224;28;20520;-74
2022/10/05 02:38:05;;;;;;;8.95;5.75;;;15.10;99.90;;;;;;5070543;28;20424;-75
2022/10/05 02:40:48;;;;;;;11.48;6.55;;;15.10;99.90;;;;;;5070493;28;20113;-74
2022/10/05 02:43:40;;;;;;;8.07;6.05;;;15.00;99.90;;;;;;5071275;28;20124;-74
2022/10/05 02:46:35;;;;;;;9.30;6.15;;;15.20;99.90;;;;;;5070718;28;20033;-74
2022/10/05 02:49:27;;;;;;;10.82;6.47;;;15.20;99.90;;;;;;5071614;28;20040;-75
2022/10/05 02:52:11;;;;;;;12.05;7.00;;;15.10;99.90;;;;;;5070090;28;20137;-74
2022/10/05 02:54:48;;;;;;;10.23;6.78;;;15.10;99.90;;;;;;5071146;28;20051;-74
2022/10/05 02:57:18;;;;;;;11.07;6.40;;;14.90;99.90;;;;;;5071328;28;20041;-74
2022/10/05 03:00:00;;;;;;;10.23;6.38;;;15.10;99.90;;;;;;5070007;28;20079;-74
2022/10/05 03:02:57;;;;;;;11.25;6.50;;;15.10;99.90;;;;;;5069650;28;20040;-74
2022/10/05 03:05:48;;;;;;;9.25;6.80;;;15.00;99.90;;;;;;5070305;28;20067;-74
2022/10/05 03:08:34;;;;;;;11.02;6.20;;;15.00;99.90;;;;;;5075035;28;20102;-76
2022/10/05 03:11:21;;;;;;;12.93;6.75;;;15.10;99.90;;;;;;5075356;28;20044;-75
2022/10/05 03:14:05;;;;;;;14.50;6.50;;;15.20;99.90;;;;;;5074989;28;20047;-74
2022/10/05 03:16:37;;;;;;;10.05;6.57;;;15.10;99.90;;;;;;5075199;28;20041;-75
2022/10/05 03:19:35;;;;;;;9.25;6.53;;;15.00;99.90;;;;;;5073980;28;20044;-74
2022/10/05 03:22:37;;;;;;;12.48;6.95;;;15.00;99.90;;;;;;5074910;28;20040;-75
2022/10/05 03:25:31;;;;;;;9.57;6.53;;;15.20;99.90;;;;;;5073584;28;20036;-74
2022/10/05 03:28:26;;;;;;;11.07;7.10;;;14.90;99.90;;;;;;5075052;28;20033;-75
2022/10/05 03:31:02;;;;;;;8.20;6.35;;;15.00;99.90;;;;;;5068861;28;20052;-75
2022/10/05 03:33:58;;;;;;;10.52;6.53;;;14.90;99.90;;;;;;5073233;28;20120;-74
2022/10/05 03:36:41;;;;;;;9.52;6.32;;;15.00;99.90;;;;;;5073694;28;20446;-75
2022/10/05 03:39:11;;;;;;;8.52;6.13;;;14.90;99.90;;;;;;5074699;28;20051;-74
2022/10/05 03:41:46;;;;;;;10.18;6.55;;;15.10;99.90;;;;;;5073561;28;20079;-74
2022/10/05 03:44:30;;;;;;;11.80;6.97;;;15.10;99.90;;;;;;5073295;28;20409;-75
2022/10/05 03:47:28;;;;;;;10.18;6.53;;;14.90;99.90;;;;;;5074490;28;20502;-75
2022/10/05 03:50:15;;;;;;;13.32;6.18;;;14.90;99.90;;;;;;5045040;28;20048;-74
2022/10/05 03:52:49;;;;;;;9.82;6.60;;;15.10;99.90;;;;;;5073940;28;20113;-75
2022/10/05 03:55:45;;;;;;;9.27;6.20;;;15.20;99.90;;;;;;5073313;28;20557;-74
2022/10/05 03:58:20;;;;;;;9.00;6.43;;;15.20;99.90;;;;;;5073003;28;20044;-74
2022/10/05 04:00:51;;;;;;;9.02;5.70;;;15.20;99.90;;;;;;5073307;28;20044;-75
2022/10/05 04:03:35;;;;;;;10.00;6.50;;;15.00;99.90;;;;;;5072587;28;20056;-75
2022/10/05 04:06:25;;;;;;;11.38;6.32;;;15.20;99.90;;;;;;5072963;28;20473;-75
2022/10/05 04:09:22;;;;;;;11.10;6.55;;;15.00;99.90;;;;;;5073077;28;20052;-75
2022/10/05 04:11:55;;;;;;;11.43;6.30;;;15.10;99.90;;;;;;5042732;28;20560;-74
2022/10/05 04:14:36;;;;;;;10.35;6.75;;;14.90;99.90;;;;;;5072518;28;20040;-75
2022/10/05 04:17:10;;;;;;;8.25;5.40;;;15.00;99.90;;;;;;5073971;28;20094;-74
2022/10/05 04:19:57;;;;;;;12.73;6.07;;;15.00;99.90;;;;;;5073812;28;20045;-76
2022/10/05 04:22:56;;;;;;;9.85;6.30;;;15.00;99.90;;;;;;5072182;28;20517;-76
2022/10/05 04:25:27;;;;;;;10.48;6.38;;;14.90;99.90;;;;;;5048658;28;20045;-74
2022/10/05 04:28:54;;;;;;;8.80;6.75;;;15.20;99.90;;;;;;5072544;28;20497;-74
2022/10/05 04:31:54;;;;;;;10.05;5.75;;;15.00;99.90;;;;;;5014700;28;20046;-75
2022/10/05 04:34:43;;;;;;;9.88;6.75;;;15.00;99.90;;;;;;5014497;28;20049;-74
2022/10/05 04:37:22;;;;;;;14.15;6.75;;;15.00;99.90;;;;;;5067669;28;20041;-74
2022/10/05 04:40:15;;;;;;;10.57;6.60;;;15.20;99.90;;;;;;5072550;28;20040;-75
2022/10/05 04:43:04;;;;;;;9.70;6.55;;;15.10;99.90;;;;;;5071921;28;20056;-74
2022/10/05 04:46:01;;;;;;;10.00;7.15;;;15.10;99.90;;;;;;5072139;28;20045;-75
2022/10/05 04:48:56;;;;;;;8.80;6.30;;;15.10;99.90;;;;;;5072065;28;20516;-75
2022/10/05 04:51:49;;;;;;;12.15;7.10;;;15.10;99.90;;;;;;5071939;28;20080;-74
2022/10/05 04:54:56;;;;;;;10.48;6.95;;;14.90;99.90;;;;;;5071723;28;20032;-75
2022/10/05 04:57:33;;;;;;;7.47;6.20;;;15.00;99.90;;;;;;5072075;28;20417;-75
2022/10/05 05:00:24;;;;;;;9.15;5.95;;;14.80;99.90;;;;;;5073237;28;20600;-75
2022/10/05 05:03:03;;;;;;;11.02;7.25;;;14.90;99.90;;;;;;5071374;28;20128;-75
2022/10/05 05:06:24;;;;;;;9.23;6.78;;;15.00;99.90;;;;;;5071733;28;20049;-75
2022/10/05 05:09:06;;;;;;;11.90;6.80;;;15.10;99.90;;;;;;5063535;28;20044;-75
2022/10/05 05:11:59;;;;;;;11.75;7.75;;;14.80;99.90;;;;;;5071318;28;20110;-75
2022/10/05 05:14:37;;;;;;;11.25;6.95;;;14.90;99.90;;;;;;5071577;28;20461;-75
2022/10/05 05:17:31;;;;;;;9.30;6.90;;;15.00;99.90;;;;;;5071740;28;20434;-75
2022/10/05 05:20:25;;;;;;;11.43;6.95;;;15.10;99.90;;;;;;5072666;28;20486;-75
2022/10/05 05:23:06;;;;;;;9.90;6.47;;;14.90;99.90;;;;;;5072407;28;20037;-75
2022/10/05 05:26:01;;;;;;;10.23;6.68;;;15.00;99.90;;;;;;5071304;28;20119;-75
2022/10/05 05:28:50;;;;;;;13.70;7.63;;;14.90;99.90;;;;;;5071536;28;20048;-75
2022/10/05 05:31:29;;;;;;;11.32;6.70;;;14.90;99.90;;;;;;5072537;28;20041;-75
2022/10/05 05:34:35;;;;;;;12.80;6.88;;;15.00;99.90;;;;;;5072243;28;20032;-75
2022/10/05 05:37:13;;;;;;;15.57;7.22;;;14.90;99.90;;;;;;5066582;28;20044;-75
2022/10/05 05:40:15;;;;;;;10.70;6.57;;;15.00;99.90;;;;;;5071077;28;20068;-74
2022/10/05 05:42:55;;;;;;;13.80;6.95;;;14.80;99.90;;;;;;5071948;28;20064;-75
2022/10/05 05:45:56;;;;;;;10.73;6.03;;;15.00;99.90;;;;;;5071245;28;20047;-74
2022/10/05 05:48:25;;;;;;;14.15;6.90;;;14.90;99.90;;;;;;5071088;28;20451;-75
2022/10/05 05:51:02;;;;;;;10.20;6.53;;;14.90;99.90;;;;;;5071952;28;20052;-74
2022/10/05 05:53:43;;;;;;;9.50;6.25;;;14.90;99.90;;;;;;5070537;28;20037;-74
2022/10/05 05:56:12;;;;;;;9.35;6.60;;;14.90;99.90;;;;;;5070850;28;20076;-75
2022/10/05 05:58:45;;;;;;;9.73;6.50;;;15.00;99.90;;;;;;5070824;28;20040;-75
2022/10/05 06:01:21;;;;;;;10.20;6.47;;;15.00;99.90;;;;;;5070907;28;20079;-75
2022/10/05 06:04:01;;;;;;;8.48;5.72;;;14.90;99.90;;;;;;5070445;28;20147;-75
2022/10/05 06:06:31;;;;;;;9.68;5.70;;;15.10;99.90;;;;;;5070862;28;20064;-75
2022/10/05 06:09:04;;;;;;;9.60;6.10;;;14.90;99.90;;;;;;5070665;28;20611;-74
2022/10/05 06:11:49;;;;;;;9.50;6.63;;;14.90;99.90;;;;;;5071582;28;20044;-74
2022/10/05 06:14:28;;;;;;;9.93;6.95;;;14.90;99.90;;;;;;5070556;28;20049;-75
2022/10/05 06:17:03;;;;;;;8.65;5.65;;;14.90;99.90;;;;;;5070525;28;20036;-75
2022/10/05 06:19:32;;;;;;;7.47;5.60;;;14.90;99.90;;;;;;5070704;28;20098;-74
2022/10/05 06:22:03;;;;;;;13.07;5.97;;;15.00;99.90;;;;;;5071580;28;20505;-76
2022/10/05 06:24:52;;;;;;;8.18;5.72;;;15.00;99.90;;;;;;5071345;28;20044;-75
2022/10/05 06:27:56;;;;;;;7.07;5.45;;;14.90;99.90;;;;;;5070467;28;20036;-75
2022/10/05 06:30:21;;;;;;;9.43;6.10;;;15.00;99.90;;;;;;5070378;28;20091;-75
2022/10/05 06:33:09;;;;;;;10.00;5.85;;;15.00;99.90;;;;;;5071217;28;20037;-75
2022/10/05 06:36:16;;;;;;;11.20;6.35;;;14.90;99.90;;;;;;5071722;28;20041;-76
2022/10/05 06:39:19;;;;;;;11.40;6.50;;;14.90;99.90;;;;;;5070294;28;20040;-75
2022/10/05 06:42:26;;;;;;;11.77;5.97;;;15.00;99.90;;;;;;5071781;28;20116;-75
2022/10/05 06:45:06;;;;;;;8.55;5.75;;;14.90;99.90;;;;;;5053750;28;20497;-74
2022/10/05 06:47:46;;;;;;;8.38;5.95;;;15.00;99.90;;;;;;5074366;28;20075;-75
2022/10/05 06:50:30;;;;;;;9.52;5.97;;;15.00;99.90;;;;;;5074363;28;20521;-75
2022/10/05 06:53:14;;;;;;;8.80;6.68;;;14.90;99.90;;;;;;5074127;28;20036;-75
2022/10/05 06:56:06;;;;;;;8.38;5.88;;;14.90;99.90;;;;;;5075455;28;20174;-75
2022/10/05 06:59:00;;;;;;;12.38;6.57;;;14.90;99.90;;;;;;5074258;28;20040;-75
2022/10/05 07:01:44;;;;;;;10.63;6.53;;;14.90;99.90;;;;;;5073967;28;20044;-75
2022/10/05 07:04:46;;;;;;;13.02;5.93;;;14.90;99.90;;;;;;5074376;28;20044;-74
2022/10/05 07:07:38;;;;;;;9.27;6.43;;;14.90;99.90;;;;;;5071356;28;20048;-74
2022/10/05 07:10:13;;;;;;;10.85;7.10;;;15.00;99.90;;;;;;5074059;28;20391;-75
2022/10/05 07:12:40;;;;;;;9.10;6.25;;;15.00;99.90;;;;;;5073334;28;20111;-75
2022/10/05 07:15:17;;;;;;;8.40;5.90;;;15.00;99.90;;;;;;5074571;28;20036;-74
2022/10/05 07:17:52;;;;;;;10.10;6.20;;;14.90;99.90;;;;;;5071102;28;20048;-74
2022/10/05 07:20:30;;;;;;;8.55;6.82;;;15.20;99.90;;;;;;5073864;28;20498;-74
2022/10/05 07:23:18;;;;;;;9.23;6.32;;;15.10;99.90;;;;;;5074481;28;20147;-73
2022/10/05 07:26:13;;;;;;;11.98;6.75;;;14.90;99.90;;;;;;5073609;28;20048;-74
2022/10/05 07:29:05;;;;;;;8.13;5.35;;;15.10;99.90;;;;;;5072686;28;20097;-74
2022/10/05 07:31:36;;;;;;;8.88;5.82;;;15.20;99.90;;;;;;5074579;28;20467;-74
2022/10/05 07:34:36;;;;;;;7.90;5.70;;;15.10;99.90;;;;;;5074549;28;20040;-74
2022/10/05 07:40:20;;;;;;;9.60;5.05;;;15.10;99.90;;;;;;5073370;28;20084;-74
2022/10/05 07:43:03;;;;;;;8.13;4.85;;;15.30;99.90;;;;;;5072854;28;20094;-74
2022/10/05 07:45:44;;;;;;;6.90;5.20;;;15.20;99.90;;;;;;5073225;28;20037;-74
2022/10/05 07:48:45;;;;;;;7.18;5.25;;;15.20;99.90;;;;;;5074719;28;20052;-74
2022/10/05 07:51:22;;;;;;;6.20;5.13;;;15.10;99.90;;;;;;5057865;28;20555;-74
2022/10/05 07:54:20;;;;;;;6.07;4.55;;;15.10;99.90;;;;;;5072433;28;20052;-74
2022/10/05 07:56:55;;;;;;;5.18;4.10;;;15.20;99.90;;;;;;5071429;28;20091;-75
2022/10/05 07:59:31;;;;;;;7.53;4.30;;;15.40;99.90;;;;;;5073060;28;20098;-74
2022/10/05 08:02:09;;;;;;;4.60;4.10;;;15.40;99.90;;;;;;5074131;28;20451;-74
2022/10/05 08:04:46;;;;;;;6.85;4.13;;;15.20;99.90;;;;;;5073989;28;20048;-74
2022/10/05 08:07:16;;;;;;;6.55;3.83;;;15.20;99.90;;;;;;5073881;28;20444;-74
2022/10/05 08:10:17;;;;;;;4.18;3.70;;;15.30;99.90;;;;;;5072939;28;20035;-74
2022/10/05 08:13:01;;;;;;;6.93;3.90;;;15.30;99.90;;;;;;5073573;28;20083;-74
2022/10/05 08:15:37;;;;;;;7.20;3.47;;;15.30;99.90;;;;;;5072752;28;20046;-74
2022/10/05 08:18:24;;;;;;;3.85;3.20;;;15.30;99.90;;;;;;5072719;28;20111;-74
2022/10/05 08:20:55;;;;;;;5.15;3.00;;;15.40;99.90;;;;;;5072547;28;20501;-74
2022/10/05 08:23:39;;;;;;;4.55;3.20;;;15.40;99.90;;;;;;5072185;28;20084;-74
2022/10/05 08:26:18;;;;;;;6.18;3.00;;;15.40;99.90;;;;;;5072524;28;20055;-75
2022/10/05 08:29:18;;;;;;;4.43;3.58;;;15.50;99.90;;;;;;5072427;28;20054;-74
2022/10/05 08:31:48;;;;;;;7.93;3.63;;;15.60;99.90;;;;;;5072180;28;20049;-74
2022/10/05 08:34:34;;;;;;;4.63;3.85;;;15.50;99.90;;;;;;5071979;28;20072;-74
2022/10/05 08:37:19;;;;;;;9.13;4.85;;;15.50;99.90;;;;;;5073610;28;20051;-74
2022/10/05 08:40:10;;;;;;;15.63;5.25;;;15.60;99.90;;;;;;5072310;28;20041;-74
2022/10/05 08:42:58;;;;;;;8.77;5.03;;;15.50;99.90;;;;;;5073384;28;20029;-75
2022/10/05 08:46:07;;;;;;;9.07;5.07;;;15.70;99.90;;;;;;5072225;28;20036;-74
2022/10/05 08:48:41;;;;;;;7.38;5.35;;;15.80;99.90;;;;;;5072360;28;20071;-74
2022/10/05 08:51:35;;;;;;;5.75;4.47;;;15.80;99.90;;;;;;5071971;28;20045;-74
2022/10/05 08:54:04;;;;;;;7.43;5.72;;;15.80;99.90;;;;;;5072930;28;20044;-74
2022/10/05 08:56:45;;;;;;;9.57;4.30;;;15.90;99.90;;;;;;5073076;28;20044;-76
2022/10/05 08:59:13;;;;;;;5.97;4.35;;;16.00;99.90;;;;;;5073011;28;20036;-73
2022/10/05 09:02:14;;;;;;;6.88;3.85;;;15.90;99.90;;;;;;5071288;28;20115;-74
2022/10/05 09:05:12;;;;;;;7.85;4.45;;;16.10;99.90;;;;;;5069662;28;20065;-75
2022/10/05 09:08:10;;;;;;;8.00;4.57;;;16.10;99.90;;;;;;5071684;28;20518;-75
2022/10/05 09:11:17;;;;;;;5.20;4.05;;;16.10;99.90;;;;;;5069774;28;20067;-74
2022/10/05 09:14:00;;;;;;;6.93;4.28;;;16.20;99.90;;;;;;5071407;28;20094;-74
2022/10/05 09:16:51;;;;;;;5.32;4.30;;;16.40;99.90;;;;;;5071521;28;20055;-73
2022/10/05 09:19:50;;;;;;;9.65;4.13;;;16.40;99.90;;;;;;5071498;28;20086;-73
2022/10/05 09:22:37;;;;;;;5.72;4.18;;;16.50;99.90;;;;;;5072111;28;20044;-72
2022/10/05 09:25:18;;;;;;;6.45;4.30;;;16.80;99.90;;;;;;5072741;28;20037;-73
2022/10/05 09:28:16;;;;;;;6.22;3.88;;;16.80;99.90;;;;;;5071219;28;20040;-73
2022/10/05 09:31:15;;;;;;;8.73;4.82;;;17.00;99.90;;;;;;5072372;28;20037;-73
2022/10/05 09:34:02;;;;;;;7.80;4.13;;;17.00;99.90;;;;;;5072381;28;20079;-74
2022/10/05 09:36:52;;;;;;;5.72;3.75;;;17.00;99.90;;;;;;5071466;28;20048;-73
2022/10/05 09:39:37;;;;;;;7.32;3.78;;;17.00;99.90;;;;;;5072691;28;20036;-74
2022/10/05 09:42:23;;;;;;;8.38;4.05;;;17.10;99.90;;;;;;5071074;28;20045;-74
2022/10/05 09:45:30;;;;;;;6.45;4.03;;;17.10;99.90;;;;;;5072242;28;20040;-73
2022/10/05 09:48:24;;;;;;;7.72;3.95;;;17.20;99.90;;;;;;5070880;28;20116;-74
2022/10/05 09:51:22;;;;;;;8.48;4.13;;;17.20;99.90;;;;;;5070741;28;20059;-72
2022/10/05 09:54:09;;;;;;;10.18;3.60;;;17.10;99.90;;;;;;5071873;28;20045;-73
2022/10/05 09:56:53;;;;;;;8.43;3.85;;;17.20;99.90;;;;;;5072100;28;20050;-73
2022/10/05 10:00:02;;;;;;;7.05;3.35;;;17.20;99.90;;;;;;5070916;28;20110;-73
2022/10/05 10:03:04;;;;;;;7.38;4.00;;;17.20;99.90;;;;;;5070392;28;20041;-73
2022/10/05 10:05:42;;;;;;;6.93;3.65;;;17.20;99.90;;;;;;5070457;28;20124;-74
2022/10/05 10:08:35;;;;;;;4.68;2.90;;;17.00;99.90;;;;;;5070912;28;20050;-73
2022/10/05 10:11:07;;;;;;;4.88;3.40;;;17.10;99.90;;;;;;5070524;28;20049;-73
2022/10/05 10:13:44;;;;;;;7.95;3.22;;;17.00;99.90;;;;;;5070289;28;20048;-73
2022/10/05 10:16:32;;;;;;;3.58;2.95;;;16.90;99.90;;;;;;5070705;28;20052;-74
2022/10/05 10:19:11;;;;;;;5.43;3.47;;;16.90;99.90;;;;;;5070556;28;20125;-74
2022/10/05 10:21:37;;;;;;;5.68;2.67;;;16.90;99.90;;;;;;5070698;28;20456;-73
2022/10/05 10:24:32;;;;;;;4.65;2.95;;;17.00;99.90;;;;;;5070316;28;20063;-73
2022/10/05 10:27:11;;;;;;;4.63;2.95;;;16.90;99.90;;;;;;5087540;28;20044;-74
2022/10/05 10:30:22;;;;;;;6.40;3.20;;;16.90;99.90;;;;;;5070436;28;20079;-73
2022/10/05 10:33:14;;;;;;;3.40;3.10;;;16.80;99.90;;;;;;5070012;28;20044;-73
2022/10/05 10:36:01;;;;;;;4.38;3.35;;;16.90;99.90;;;;;;5071769;28;20086;-73
2022/10/05 10:38:40;;;;;;;4.88;2.92;;;16.80;99.90;;;;;;5070604;28;20033;-73
2022/10/05 10:41:15;;;;;;;3.25;2.72;;;16.80;99.90;;;;;;5087464;28;20128;-74
2022/10/05 10:44:02;;;;;;;5.28;3.40;;;16.90;99.90;;;;;;5071356;28;20075;-73
2022/10/05 10:46:40;;;;;;;4.22;3.60;;;16.80;99.90;;;;;;5070444;28;20049;-74
2022/10/05 10:49:46;;;;;;;6.63;3.50;;;16.80;99.90;;;;;;5071423;28;20105;-72
2022/10/05 10:52:42;;;;;;;7.15;3.20;;;16.70;99.90;;;;;;5069823;28;20068;-73
2022/10/05 10:55:27;;;;;;;5.10;3.08;;;16.80;99.90;;;;;;5071466;28;20044;-71
2022/10/05 10:58:39;;;;;;;5.95;4.00;;;16.70;99.90;;;;;;5070544;28;20124;-75
2022/10/05 11:01:11;;;;;;;8.23;4.10;;;16.70;99.90;;;;;;4968966;28;20429;-73
2022/10/05 11:04:00;;;;;;;7.78;3.50;;;16.70;99.90;;;;;;4969348;28;20035;-72
2022/10/05 11:07:06;;;;;;;4.97;3.75;;;16.70;99.90;;;;;;5036865;28;20041;-74
2022/10/05 11:10:09;;;;;;;4.22;3.83;;;16.70;99.90;;;;;;5066245;28;20431;-71
2022/10/05 11:13:04;;;;;;;5.15;3.55;;;16.70;99.90;;;;;;5068246;28;20115;-74
2022/10/05 11:15:55;;;;;;;5.07;4.55;;;16.80;99.90;;;;;;5067207;28;20185;-72
2022/10/05 11:18:45;;;;;;;5.00;4.05;;;16.70;99.90;;;;;;5071171;28;20052;-71
2022/10/05 11:21:46;;;;;;;4.75;4.10;;;16.60;99.90;;;;;;5069848;28;20033;-73
2022/10/05 11:24:42;;;;;;;5.45;4.10;;;16.70;99.90;;;;;;5069208;28;20033;-72
2022/10/05 11:27:32;;;;;;;5.50;3.95;;;16.60;99.90;;;;;;5071525;28;20033;-72
2022/10/05 11:30:18;;;;;;;7.18;4.30;;;16.70;99.90;;;;;;5073472;28;20527;-73
2022/10/05 11:33:20;;;;;;;5.93;4.18;;;16.70;99.90;;;;;;5074480;28;20041;-73
2022/10/05 11:36:42;;;;;;;4.00;3.60;;;16.70;99.90;;;;;;5073681;28;20048;-74
2022/10/05 11:39:46;;;;;;;5.35;4.35;;;16.60;99.90;;;;;;5016053;28;20541;-74
2022/10/05 11:42:38;;;;;;;4.95;4.35;;;16.50;99.90;;;;;;5010106;28;20045;-74
2022/10/05 11:45:20;;;;;;;7.53;4.45;;;16.50;99.90;;;;;;5073256;28;20033;-74
2022/10/05 11:48:14;;;;;;;6.78;4.38;;;16.50;99.90;;;;;;5073563;28;20170;-74
2022/10/05 11:50:56;;;;;;;4.65;3.90;;;16.50;99.90;;;;;;5056539;28;20102;-74
2022/10/05 11:53:37;;;;;;;5.70;4.28;;;16.50;99.90;;;;;;5072734;28;20032;-74
2022/10/05 11:56:25;;;;;;;5.68;4.10;;;16.50;99.90;;;;;;5073406;28;20445;-74
2022/10/05 11:58:57;;;;;;;6.32;4.22;;;16.40;99.90;;;;;;5074512;28;20079;-74
2022/10/05 12:01:35;;;;;;;5.72;4.88;;;16.50;99.90;;;;;;5073102;28;20476;-73
2022/10/05 12:04:15;;;;;;;8.45;5.43;;;16.40;99.90;;;;;;5072701;28;20524;-74
2022/10/05 12:06:56;;;;;;;5.65;4.28;;;16.50;99.90;;;;;;5072857;28;20045;-74
2022/10/05 12:12:52;;;;;;;8.07;5.10;;;16.40;99.90;;;;;;5073616;28;20105;-74
2022/10/05 12:15:30;;;;;;;8.95;5.85;;;16.40;99.90;;;;;;5056203;28;20045;-74
2022/10/05 12:18:12;;;;;;;6.25;5.65;;;16.40;99.90;;;;;;5073245;28;20126;-74
2022/10/05 12:21:08;;;;;;;7.15;5.70;;;16.50;99.90;;;;;;5072806;28;20029;-73
2022/10/05 12:23:41;;;;;;;7.72;5.10;;;16.50;99.90;;;;;;5072421;28;20043;-74
2022/10/05 12:26:28;;;;;;;7.55;5.45;;;16.40;99.90;;;;;;5072599;28;20041;-75
2022/10/05 12:29:06;;;;;;;5.38;4.88;;;16.50;99.90;;;;;;5072877;28;20058;-74
2022/10/05 12:31:52;;;;;;;8.65;5.35;;;16.50;99.90;;;;;;5073784;28;20036;-70
2022/10/05 12:34:58;;;;;;;5.63;4.60;;;16.50;99.90;;;;;;5072990;28;20041;-71
2022/10/05 12:37:45;;;;;;;7.55;4.20;;;16.80;99.90;;;;;;5073219;28;20044;-70
2022/10/05 12:40:34;;;;;;;6.65;4.60;;;16.80;99.90;;;;;;5071663;28;20047;-71
2022/10/05 12:43:24;;;;;;;5.15;3.70;;;16.90;99.90;;;;;;5071252;28;20041;-70
2022/10/05 12:46:24;;;;;;;5.97;4.03;;;16.90;99.90;;;;;;5072623;28;20032;-70
2022/10/05 12:48:59;;;;;;;6.70;3.95;;;16.90;99.90;;;;;;5072947;28;20043;-71
2022/10/05 12:51:46;;;;;;;5.07;3.45;;;17.00;99.90;;;;;;5073281;28;20048;-71
2022/10/05 12:54:36;;;;;;;5.03;3.67;;;16.90;99.90;;;;;;5071678;28;20044;-71
2022/10/05 12:57:21;;;;;;;4.45;3.35;;;17.00;99.90;;;;;;5072041;28;20040;-71
2022/10/05 12:59:58;;;;;;;3.92;3.22;;;17.00;99.90;;;;;;5072337;28;20115;-71
2022/10/05 13:02:43;;;;;;;7.90;3.15;;;17.10;99.90;;;;;;5072871;28;20036;-72
2022/10/05 13:05:09;;;;;;;6.25;3.13;;;17.00;99.90;;;;;;5072290;28;20049;-71
2022/10/05 13:07:59;;;;;;;4.43;3.20;;;17.10;99.90;;;;;;5071796;28;20124;-71
2022/10/05 13:10:45;;;;;;;5.45;3.33;;;17.10;99.90;;;;;;5072955;28;20072;-71
2022/10/05 13:13:19;;;;;;;6.90;3.40;;;17.10;99.90;;;;;;5072580;28;20125;-71
2022/10/05 13:15:51;;;;;;;4.65;3.03;;;16.90;99.90;;;;;;5070970;28;20120;-72
2022/10/05 13:18:19;;;;;;;8.02;3.50;;;17.00;99.90;;;;;;5054634;28;20446;-71
2022/10/05 13:21:03;;;;;;;3.55;3.15;;;17.10;99.90;;;;;;5070396;28;20040;-71
2022/10/05 13:23:33;;;;;;;;;;;17.00;99.90;;;;;;5073038;28;20044;-71
2022/10/05 13:26:06;;;;;;;5.25;3.00;;;17.00;99.90;;;;;;5072764;28;19971;-71
2022/10/05 13:28:56;;;;;;;6.00;3.42;;;17.00;99.90;;;;;;5072689;28;20100;-72
2022/10/05 13:31:30;;;;;;;5.18;3.05;;;17.10;99.90;;;;;;5072439;28;20048;-71
2022/10/05 13:34:08;;;;;;;5.10;3.65;;;17.20;99.90;;;;;;5072335;28;20060;-71
2022/10/05 13:36:58;;;;;;;6.43;3.78;;;17.30;99.90;;;;;;5071247;28;20036;-71
2022/10/05 13:39:37;;;;;;;9.20;4.45;;;17.30;99.90;;;;;;5072425;28;20072;-71
2022/10/05 13:42:18;;;;;;;9.07;4.53;;;17.30;99.90;;;;;;5071985;28;20032;-71
2022/10/05 13:44:57;;;;;;;6.25;4.10;;;17.30;99.90;;;;;;5071022;28;20570;-71
2022/10/05 13:47:30;;;;;;;5.68;4.38;;;17.40;99.90;;;;;;5072486;28;20169;-72
2022/10/05 13:50:12;;;;;;;7.18;4.45;;;17.50;99.90;;;;;;5070560;28;20047;-72
2022/10/05 13:52:44;;;;;;;9.23;4.72;;;17.50;99.90;;;;;;5071700;28;20071;-71
2022/10/05 13:55:28;;;;;;;6.55;4.35;;;17.40;99.90;;;;;;5071012;28;20104;-71
2022/10/05 13:58:02;;;;;;;7.22;4.75;;;17.40;99.90;;;;;;5070431;28;20070;-72
2022/10/05 14:00:29;;;;;;;7.60;5.03;;;17.50;99.90;;;;;;5069255;28;20051;-71
2022/10/05 14:02:58;;;;;;;9.40;4.93;;;17.50;99.90;;;;;;5071120;28;20040;-72
2022/10/05 14:05:29;;;;;;;7.78;4.85;;;17.40;99.90;;;;;;5072208;28;20098;-72
2022/10/05 14:08:16;;;;;;;6.28;4.43;;;17.40;99.90;;;;;;5054031;28;20158;-72
2022/10/05 14:10:44;;;;;;;9.32;4.93;;;17.50;99.90;;;;;;5071855;28;20485;-72
2022/10/05 14:13:44;;;;;;;7.93;4.72;;;17.50;99.90;;;;;;5070186;28;20494;-71
2022/10/05 14:16:17;;;;;;;7.47;4.53;;;17.60;99.90;;;;;;5070577;28;20047;-73
2022/10/05 14:18:56;;;;;;;8.05;4.40;;;17.50;99.90;;;;;;5071944;28;20036;-71
2022/10/05 14:21:25;;;;;;;6.43;4.55;;;17.50;99.90;;;;;;5065301;28;20045;-72